createdAt,value
2018-03-02T00:01:27.977Z,35.80
2018-03-02T00:03:55.520Z,33.30
2018-03-02T00:06:23.141Z,34.53
2018-03-02T00:08:50.649Z,34.92
2018-03-02T00:11:18.198Z,34.55
2018-03-02T00:13:45.722Z,35.15
2018-03-02T00:16:13.308Z,35.42
2018-03-02T00:18:40.817Z,35.40
2018-03-02T00:21:09.092Z,35.10
2018-03-02T00:23:37.366Z,35.80
2018-03-02T00:26:04.893Z,34.60
2018-03-02T00:28:32.443Z,37.35
2018-03-02T00:30:59.954Z,35.70
2018-03-02T00:33:28.250Z,35.22
2018-03-02T00:35:55.922Z,35.20
2018-03-02T00:38:23.435Z,36.42
2018-03-02T00:40:51.830Z,38.70
2018-03-02T00:43:19.369Z,37.33
2018-03-02T00:45:46.865Z,35.72
2018-03-02T04:15:46.682Z,37.38
2018-03-02T04:18:14.208Z,39.15
2018-03-02T04:20:41.730Z,39.63
2018-03-02T04:23:09.271Z,39.72
2018-03-02T04:25:36.789Z,38.50
2018-03-02T04:28:04.288Z,38.63
2018-03-02T04:30:31.913Z,39.03
2018-03-02T04:32:59.438Z,39.13
2018-03-02T04:35:26.965Z,40.45
2018-03-02T04:37:54.446Z,40.30
2018-03-02T04:40:22.024Z,40.60
2018-03-02T04:42:50.466Z,40.25
2018-03-02T04:45:17.962Z,39.58
2018-03-02T04:47:45.617Z,39.70
2018-03-02T04:50:13.134Z,40.05
2018-03-02T04:52:40.669Z,41.30
2018-03-02T04:55:08.177Z,39.70
2018-03-02T04:57:36.490Z,39.65
2018-03-02T05:00:04.006Z,40.10
2018-03-02T05:02:31.720Z,41.67
2018-03-02T05:04:59.374Z,40.22
2018-03-02T05:07:26.886Z,39.47
2018-03-02T05:09:54.402Z,40.55
2018-03-02T05:12:21.919Z,39.42
2018-03-02T05:14:49.506Z,41.60
2018-03-02T05:17:17.024Z,39.75
2018-03-02T05:19:44.531Z,39.83
2018-03-02T05:22:12.172Z,36.70
2018-03-02T05:24:40.369Z,40.90
2018-03-02T05:27:07.891Z,40.58
2018-03-02T05:29:35.421Z,40.47
2018-03-02T05:32:03.030Z,39.30
2018-03-02T05:34:30.530Z,42.33
2018-03-02T05:36:58.362Z,39.83
2018-03-02T05:39:25.866Z,40.88
2018-03-02T05:41:53.559Z,39.67
2018-03-02T05:44:45.019Z,40.10
2018-03-02T05:58:44.500Z,40.20
2018-03-02T06:01:14.269Z,40.72
2018-03-02T06:03:41.792Z,41.63
2018-03-02T06:06:09.332Z,40.15
2018-03-02T06:08:36.870Z,41.25
2018-03-02T06:11:04.453Z,41.75
2018-03-02T06:13:31.959Z,41.15
2018-03-02T06:15:59.487Z,39.85
2018-03-02T06:18:27.260Z,42.10
2018-03-02T06:20:54.887Z,39.90
2018-03-02T06:23:22.410Z,42.17
2018-03-02T06:25:49.943Z,42.88
2018-03-02T06:28:17.521Z,40.45
2018-03-02T06:30:45.084Z,39.47
2018-03-02T06:33:12.882Z,40.72
2018-03-02T06:35:40.443Z,40.67
2018-03-02T06:38:07.980Z,42.03
2018-03-02T06:40:36.559Z,41.28
2018-03-02T06:43:05.464Z,42.22
2018-03-02T06:45:33.023Z,41.53
2018-03-02T06:48:01.081Z,40.17
2018-03-02T06:50:28.708Z,41.15
2018-03-02T06:52:56.243Z,42.00
2018-03-02T06:55:23.785Z,42.45
2018-03-02T06:57:51.385Z,38.78
2018-03-02T07:00:19.413Z,40.08
2018-03-02T07:02:46.967Z,41.42
2018-03-02T07:05:14.568Z,41.00
2018-03-02T07:07:42.878Z,43.55
2018-03-02T07:10:10.436Z,41.67
2018-03-02T07:12:37.995Z,43.38
2018-03-02T07:15:05.514Z,41.37
2018-03-02T07:17:33.851Z,42.72
2018-03-02T07:20:01.376Z,41.78
2018-03-02T07:22:29.674Z,42.28
2018-03-02T07:24:57.214Z,41.40
2018-03-02T07:27:24.738Z,40.25
2018-03-02T07:29:52.270Z,42.45
2018-03-02T07:32:19.779Z,44.05
2018-03-02T07:34:47.289Z,41.17
2018-03-02T07:37:14.834Z,41.97
2018-03-02T07:39:42.333Z,38.53
2018-03-02T07:42:09.863Z,53.03
2018-03-02T07:44:37.384Z,44.17
2018-03-02T07:47:04.912Z,41.58
2018-03-02T07:49:32.581Z,41.13
2018-03-02T07:52:00.081Z,42.05
2018-03-02T07:54:27.576Z,40.97
2018-03-02T07:56:55.126Z,39.97
2018-03-02T07:59:22.709Z,38.90
2018-03-02T08:01:50.424Z,39.90
2018-03-02T08:04:18.092Z,40.42
2018-03-02T08:06:45.669Z,36.95
2018-03-02T08:09:13.200Z,40.42
2018-03-02T08:11:41.681Z,40.65
2018-03-02T08:14:09.207Z,40.38
2018-03-02T08:16:36.848Z,38.10
2018-03-02T08:19:04.382Z,41.65
2018-03-02T08:21:31.898Z,37.78
2018-03-02T08:23:59.855Z,40.83
2018-03-02T08:26:27.402Z,40.72
2018-03-02T08:28:55.167Z,32.20
2018-03-02T08:31:23.503Z,39.42
2018-03-02T08:33:51.119Z,39.53
2018-03-02T08:36:18.752Z,40.83
2018-03-02T08:38:46.376Z,38.80
2018-03-02T08:41:13.920Z,38.78
2018-03-02T08:43:41.752Z,39.20
2018-03-02T08:46:10.065Z,37.00
2018-03-02T08:48:37.689Z,36.80
2018-03-02T08:51:05.390Z,37.58
2018-03-02T08:53:32.928Z,32.58
2018-03-02T08:56:00.597Z,37.35
2018-03-02T08:58:28.105Z,36.97
2018-03-02T09:00:55.743Z,36.28
2018-03-02T09:03:23.255Z,37.50
2018-03-02T09:05:50.790Z,38.85
2018-03-02T09:08:18.354Z,36.80
2018-03-02T09:10:45.855Z,37.47
2018-03-02T09:13:13.647Z,36.08
2018-03-02T09:15:41.318Z,38.28
2018-03-02T09:18:08.919Z,38.03
2018-03-02T09:20:36.626Z,36.67
2018-03-02T09:23:04.376Z,36.03
2018-03-02T09:25:31.891Z,35.90
2018-03-02T09:28:00.175Z,34.45
2018-03-02T09:30:27.733Z,34.80
2018-03-02T09:32:56.030Z,33.55
2018-03-02T09:35:23.880Z,34.58
2018-03-02T09:37:52.207Z,38.63
2018-03-02T09:40:19.714Z,35.33
2018-03-02T09:42:48.216Z,36.15
2018-03-02T09:45:15.758Z,36.40
2018-03-02T09:47:44.140Z,36.45
2018-03-02T09:50:11.774Z,35.08
2018-03-02T09:52:39.283Z,36.45
2018-03-02T09:55:06.786Z,35.60
2018-03-02T09:57:35.089Z,36.13
2018-03-02T10:00:03.518Z,36.13
2018-03-02T10:02:31.042Z,36.65
2018-03-02T10:04:58.600Z,33.78
2018-03-02T10:07:26.413Z,36.67
2018-03-02T10:09:54.036Z,36.97
2018-03-02T10:12:22.034Z,33.40
2018-03-02T10:14:49.564Z,35.45
2018-03-02T10:17:17.238Z,35.03
2018-03-02T10:19:46.839Z,34.90
2018-03-02T10:22:14.503Z,33.85
2018-03-02T10:24:42.025Z,36.10
2018-03-02T10:27:09.606Z,35.72
2018-03-02T10:29:37.390Z,36.92
2018-03-02T10:32:05.056Z,35.30
2018-03-02T10:34:32.786Z,36.78
2018-03-02T10:37:00.902Z,35.25
2018-03-02T10:39:28.428Z,34.80
2018-03-02T10:41:55.957Z,33.67
2018-03-02T10:44:23.486Z,35.17
2018-03-02T10:46:51.186Z,34.20
2018-03-02T10:49:18.779Z,34.97
2018-03-02T10:51:46.294Z,33.80
2018-03-02T10:54:14.648Z,34.22
2018-03-02T10:56:42.303Z,34.40
2018-03-02T10:59:11.294Z,35.53
2018-03-02T11:01:44.377Z,35.05
2018-03-02T11:04:18.515Z,38.80
2018-03-02T11:06:46.238Z,34.67
2018-03-02T11:09:13.796Z,36.92
2018-03-02T11:11:41.317Z,38.15
2018-03-02T11:14:08.888Z,32.88
2018-03-02T11:16:36.462Z,32.80
2018-03-02T11:19:04.014Z,33.80
2018-03-02T11:21:31.558Z,35.38
2018-03-02T11:23:59.081Z,34.17
2018-03-02T11:26:26.629Z,36.45
2018-03-02T11:28:54.142Z,34.83
2018-03-02T11:31:22.426Z,36.40
2018-03-02T11:33:49.950Z,34.80
2018-03-02T11:36:18.374Z,33.93
2018-03-02T11:38:45.921Z,35.27
2018-03-02T11:41:13.465Z,36.88
2018-03-02T11:43:41.068Z,35.13
2018-03-02T11:46:08.624Z,37.83
2018-03-02T11:48:37.646Z,35.95
2018-03-02T11:51:05.159Z,35.90
2018-03-02T11:53:33.035Z,37.13
2018-03-02T11:56:00.541Z,38.13
2018-03-02T11:58:28.280Z,37.22
2018-03-02T12:00:56.038Z,37.47
2018-03-02T12:03:23.566Z,35.90
2018-03-02T12:05:51.083Z,35.97
2018-03-02T12:08:18.588Z,38.17
2018-03-02T12:10:46.122Z,35.92
2018-03-02T12:13:14.510Z,36.80
2018-03-02T12:15:42.117Z,36.92
2018-03-02T12:18:09.833Z,36.47
2018-03-02T12:20:37.339Z,36.35
2018-03-02T12:23:04.861Z,36.88
2018-03-02T12:25:32.365Z,37.20
2018-03-02T12:27:59.979Z,36.13
2018-03-02T12:30:27.649Z,36.15
2018-03-02T12:32:55.165Z,36.92
2018-03-02T12:35:22.671Z,37.13
2018-03-02T12:37:50.183Z,36.33
2018-03-02T12:40:17.796Z,35.65
2018-03-02T12:42:45.311Z,35.25
2018-03-02T12:45:12.872Z,36.58
2018-03-02T12:47:40.534Z,36.22
2018-03-02T12:50:08.830Z,35.38
2018-03-02T12:52:36.323Z,37.15
2018-03-02T12:55:03.909Z,36.30
2018-03-02T12:57:31.377Z,34.97
2018-03-02T12:59:59.134Z,35.83
2018-03-02T13:02:26.643Z,37.15
2018-03-02T13:04:54.167Z,35.95
2018-03-02T13:07:21.690Z,35.58
2018-03-02T13:09:49.234Z,35.63
2018-03-02T13:12:16.877Z,36.88
2018-03-02T13:14:44.437Z,36.35
2018-03-02T13:17:12.930Z,35.60
2018-03-02T13:19:40.442Z,35.92
2018-03-02T13:25:09.121Z,34.30
2018-03-02T13:27:48.494Z,35.85
2018-03-02T13:30:15.985Z,35.05
2018-03-02T13:32:55.336Z,35.22
2018-03-02T13:35:22.954Z,36.47
2018-03-02T13:37:50.462Z,33.78
2018-03-02T13:40:29.801Z,35.72
2018-03-02T13:42:57.342Z,35.53
2018-03-02T13:45:24.842Z,35.00
2018-03-02T13:51:06.130Z,36.38
2018-03-02T13:53:33.703Z,36.20
2018-03-02T13:56:01.242Z,36.25
2018-03-02T13:58:28.843Z,36.38
2018-03-02T14:00:57.114Z,37.17
2018-03-02T14:03:37.120Z,35.83
2018-03-02T14:06:04.973Z,35.70
2018-03-02T14:08:32.515Z,35.38
2018-03-02T14:11:02.392Z,35.53
2018-03-02T14:13:29.885Z,37.55
2018-03-02T14:15:57.408Z,34.55
2018-03-02T14:18:24.903Z,37.30
2018-03-02T14:20:52.451Z,35.60
2018-03-02T14:23:19.991Z,36.63
2018-03-02T14:25:47.516Z,35.28
2018-03-02T14:28:15.032Z,36.83
2018-03-02T14:30:42.603Z,35.97
2018-03-02T14:33:10.195Z,37.85
2018-03-02T14:35:37.710Z,37.13
2018-03-02T14:38:06.128Z,37.20
2018-03-02T14:40:33.784Z,36.85
2018-03-02T14:43:01.306Z,38.20
2018-03-02T14:45:29.709Z,35.38
2018-03-02T14:47:57.278Z,36.08
2018-03-02T14:50:24.939Z,37.97
2018-03-02T14:52:52.623Z,37.08
2018-03-02T14:55:20.170Z,40.03
2018-03-02T14:57:47.732Z,37.20
2018-03-02T15:00:15.242Z,37.63
2018-03-02T15:02:42.980Z,36.67
2018-03-02T15:05:10.573Z,38.25
2018-03-02T15:07:38.101Z,38.10
2018-03-02T15:10:05.627Z,37.08
2018-03-02T15:12:33.139Z,35.58
2018-03-02T15:15:00.664Z,35.92
2018-03-02T15:17:28.162Z,36.38
2018-03-02T15:19:55.686Z,37.65
2018-03-02T15:22:23.236Z,35.13
2018-03-02T15:24:50.782Z,33.80
2018-03-02T15:27:18.333Z,35.90
2018-03-02T15:29:46.056Z,37.47
2018-03-02T15:32:14.344Z,35.90
2018-03-02T15:34:41.886Z,35.25
2018-03-02T15:37:10.062Z,37.17
2018-03-02T15:39:37.728Z,37.03
2018-03-02T15:42:05.374Z,36.83
2018-03-02T15:44:33.662Z,36.33
2018-03-02T15:47:01.208Z,37.10
2018-03-02T15:49:28.842Z,37.03
2018-03-02T15:51:56.419Z,34.30
2018-03-02T15:54:23.932Z,38.03
2018-03-02T15:56:51.473Z,37.78
2018-03-02T15:59:19.059Z,37.22
2018-03-02T16:01:46.619Z,35.08
2018-03-02T16:07:22.135Z,37.20
2018-03-02T16:09:49.677Z,37.85
2018-03-02T16:12:17.184Z,36.88
2018-03-02T16:14:44.735Z,37.78
2018-03-02T16:17:12.235Z,35.33
2018-03-02T16:19:39.766Z,37.28
2018-03-02T16:22:07.312Z,39.22
2018-03-02T16:24:35.739Z,39.22
2018-03-02T16:27:03.334Z,38.00
2018-03-02T16:29:30.863Z,37.40
2018-03-02T16:31:58.399Z,41.25
2018-03-02T16:34:25.910Z,40.70
2018-03-02T16:36:54.207Z,42.33
2018-03-02T16:39:21.757Z,55.83
2018-03-02T16:41:49.431Z,43.63
2018-03-02T16:44:17.011Z,40.08
2018-03-02T16:46:44.546Z,42.55
2018-03-02T16:49:12.055Z,46.78
2018-03-02T16:51:39.628Z,43.13
2018-03-02T16:54:07.219Z,40.80
2018-03-02T16:56:34.843Z,40.92
2018-03-02T16:59:02.348Z,41.22
2018-03-02T17:01:29.859Z,38.50
2018-03-02T17:03:57.403Z,43.33
2018-03-02T17:06:24.944Z,42.90
2018-03-02T17:08:52.475Z,42.20
2018-03-02T17:20:10.121Z,44.50
2018-03-02T17:22:37.682Z,44.88
2018-03-02T17:25:05.267Z,44.97
2018-03-02T17:27:32.802Z,45.35
2018-03-02T17:30:00.377Z,42.97
2018-03-02T17:32:27.905Z,42.60
2018-03-02T17:34:55.491Z,44.67
2018-03-02T17:37:22.994Z,42.22
2018-03-02T17:39:50.546Z,42.55
2018-03-02T17:42:18.021Z,42.92
2018-03-02T17:44:45.614Z,41.90
2018-03-02T17:47:13.256Z,41.85
2018-03-02T17:49:40.780Z,43.50
2018-03-02T17:52:08.291Z,40.72
2018-03-02T17:54:35.865Z,38.75
2018-03-02T17:57:03.408Z,48.55
2018-03-02T17:59:30.955Z,40.70
2018-03-02T18:01:58.514Z,39.22
2018-03-02T18:04:26.014Z,40.70
2018-03-02T18:06:54.822Z,42.38
2018-03-02T18:09:23.112Z,40.05
2018-03-02T18:11:50.678Z,39.95
2018-03-02T18:14:18.205Z,38.92
2018-03-02T18:16:46.498Z,39.78
2018-03-02T18:19:14.765Z,40.25
2018-03-02T18:21:42.282Z,38.10
2018-03-02T18:24:09.817Z,39.10
2018-03-02T18:26:37.373Z,40.50
2018-03-02T18:29:04.888Z,40.78
2018-03-02T18:31:32.408Z,41.53
2018-03-02T18:33:59.887Z,42.55
2018-03-02T18:36:27.423Z,41.53
2018-03-02T18:38:54.960Z,41.47
2018-03-02T18:41:22.488Z,43.03
2018-03-02T18:43:49.997Z,43.45
2018-03-02T18:46:17.512Z,43.85
2018-03-02T18:48:45.821Z,45.15
2018-03-02T18:51:13.361Z,44.30
2018-03-02T18:53:41.749Z,45.35
2018-03-02T18:56:09.393Z,45.85
2018-03-02T18:58:37.157Z,45.15
2018-03-02T19:01:09.019Z,47.38
2018-03-02T19:03:36.576Z,47.45
2018-03-02T19:06:04.894Z,45.42
2018-03-02T19:08:32.572Z,44.38
2018-03-02T19:11:00.672Z,46.53
2018-03-02T19:13:28.228Z,44.50
2018-03-02T19:15:55.859Z,43.72
2018-03-02T19:18:24.838Z,43.55
2018-03-02T19:20:52.514Z,43.78
2018-03-02T19:23:22.305Z,45.03
2018-03-02T19:25:50.136Z,44.80
2018-03-02T19:28:22.083Z,44.58
2018-03-02T19:30:52.418Z,43.30
2018-03-02T19:33:20.025Z,42.38
2018-03-02T19:35:47.830Z,44.58
2018-03-02T19:38:15.725Z,46.90
2018-03-02T19:40:43.251Z,45.35
2018-03-02T19:43:10.754Z,44.97
2018-03-02T19:45:38.378Z,47.33
2018-03-02T19:48:06.202Z,46.83
2018-03-02T19:50:35.186Z,46.78
2018-03-02T19:53:02.776Z,46.13
2018-03-02T19:55:30.713Z,46.67
2018-03-02T19:57:58.470Z,47.70
2018-03-02T20:00:27.185Z,45.63
2018-03-02T20:02:55.111Z,48.17
2018-03-02T20:05:22.676Z,47.20
2018-03-02T20:07:50.199Z,49.00
2018-03-02T20:10:18.494Z,48.35
2018-03-02T20:12:46.807Z,49.45
2018-03-02T20:15:14.431Z,49.05
2018-03-02T20:17:42.034Z,49.60
2018-03-02T20:20:09.956Z,51.28
2018-03-02T20:22:38.310Z,48.00
2018-03-02T20:25:06.155Z,51.22
2018-03-02T20:27:33.729Z,50.60
2018-03-02T20:30:01.288Z,52.72
2018-03-02T20:32:29.638Z,48.28
2018-03-02T20:34:57.187Z,48.50
2018-03-02T20:37:25.494Z,47.65
2018-03-02T20:39:53.221Z,47.75
2018-03-02T20:42:20.763Z,48.92
2018-03-02T20:44:48.374Z,49.47
2018-03-02T20:47:15.974Z,48.25
2018-03-02T20:49:43.478Z,48.05
2018-03-02T20:52:11.001Z,47.53
2018-03-02T20:54:38.535Z,48.95
2018-03-02T20:57:06.044Z,49.10
2018-03-02T20:59:33.592Z,48.97
2018-03-02T21:02:01.977Z,49.88
2018-03-02T21:04:29.676Z,50.53
2018-03-02T21:06:57.233Z,51.22
2018-03-02T21:09:24.760Z,52.53
2018-03-02T21:11:53.124Z,55.50
2018-03-02T21:14:20.618Z,52.83
2018-03-02T21:16:48.165Z,54.72
2018-03-02T21:19:15.699Z,56.17
2018-03-02T21:21:43.304Z,62.22
2018-03-02T21:24:10.817Z,57.60
2018-03-02T21:30:12.433Z,57.90
2018-03-02T21:32:39.966Z,59.10
2018-03-02T21:35:07.507Z,59.90
2018-03-02T21:37:35.079Z,59.45
2018-03-02T21:40:02.828Z,61.13
2018-03-02T21:42:30.342Z,60.75
2018-03-02T21:44:57.863Z,59.28
2018-03-02T21:47:25.537Z,58.87
2018-03-02T21:49:53.079Z,57.60
2018-03-02T21:52:21.561Z,58.87
2018-03-02T21:54:49.165Z,62.55
2018-03-02T21:57:16.672Z,57.88
2018-03-02T21:59:44.451Z,58.28
2018-03-02T22:15:00.380Z,69.82
2018-03-02T22:17:27.903Z,67.22
2018-03-02T22:19:55.414Z,65.15
2018-03-02T22:22:23.038Z,66.35
2018-03-02T22:24:50.691Z,68.75
2018-03-02T22:27:18.222Z,67.15
2018-03-02T22:29:45.740Z,68.68
2018-03-02T22:32:13.245Z,68.32
2018-03-02T22:34:40.765Z,68.20
2018-03-02T22:37:08.357Z,66.35
2018-03-02T22:39:35.928Z,66.55
2018-03-02T22:42:07.368Z,66.37
2018-03-02T22:44:34.961Z,66.95
2018-03-02T22:47:03.288Z,67.45
2018-03-02T22:49:30.855Z,63.33
2018-03-02T22:51:58.378Z,65.10
2018-03-02T22:54:26.713Z,67.57
2018-03-02T22:56:54.292Z,66.28
2018-03-02T22:59:21.842Z,61.70
2018-03-02T23:01:49.343Z,62.50
2018-03-02T23:04:17.769Z,62.67
2018-03-02T23:06:45.389Z,63.58
2018-03-02T23:09:13.073Z,66.65
2018-03-02T23:11:40.558Z,66.18
2018-03-02T23:14:08.425Z,66.25
2018-03-02T23:16:35.932Z,67.90
2018-03-02T23:19:03.444Z,64.70
2018-03-02T23:21:30.966Z,63.15
2018-03-02T23:23:58.537Z,63.63
2018-03-02T23:26:26.086Z,62.97
2018-03-02T23:28:53.595Z,67.15
2018-03-02T23:31:21.185Z,67.25
2018-03-02T23:33:48.761Z,66.90
2018-03-02T23:36:16.367Z,69.90
2018-03-02T23:38:43.871Z,69.18
2018-03-02T23:41:11.552Z,67.22
2018-03-02T23:43:39.191Z,69.00
2018-03-02T23:46:06.729Z,67.30
2018-03-02T23:48:34.234Z,69.12
2018-03-02T23:51:01.894Z,66.65
2018-03-02T23:53:29.400Z,70.82
2018-03-02T23:55:56.941Z,74.20
2018-03-02T23:58:24.469Z,70.30
